Carlton, Louisiana
Current Conditions -  °F | °C
As of 9:55 PM on Saturday 25 Oct 2014 (Local Time) from KRSN Reporting Station
Clear Clear  
Wind Chill: 17°   Ceiling: Unl
Heat Index: 17°   Visibility: 10mi
Dew Point: 17°   Wind: 3mph
Humidity: 97%   Direction: 210°SSW
Pressure: 30.12"   Gusts: NA
Location:  32.5064°N, 92.3457°W
Report Text: KRSN 260255Z AUTO 21003KT 10SM CLR 17/17 A3012 RMK AO2 T01720167
Loading
Personal Weather Stations






























Interactive Weather Map
Tropical Storm Tracking
New forecast layout! Learn more

10-Day Weather Forecast

Advertisements
Track Severe Weather on mobile